Time;durP1;ratioP1;P1;durP2;ratioP2;P2;SDS_P1;SDS_P2;PMS_P1;PMS_P2;Temp;Humidity;BMP_temperature;BMP_pressure;BME280_temperature;BME280_humidity;BME280_pressure;Samples;Min_cycle;Max_cycle;Signal;HPM_P1;HPM_P2
2022/06/13 00:01:34;;;;;;;0.50;0.50;;;15.80;99.90;15.20;101915.00;;;;5057462;28;20192;-72
2022/06/13 00:04:08;;;;;;;0.73;0.73;;;15.50;99.90;15.00;101900.00;;;;5058136;28;20193;-72
2022/06/13 00:06:54;;;;;;;0.30;0.30;;;15.40;99.90;15.00;101902.00;;;;5057720;28;20631;-72
2022/06/13 00:09:40;;;;;;;0.80;0.80;;;15.30;99.90;15.00;101900.00;;;;5041415;28;20223;-73
2022/06/13 00:12:28;;;;;;;0.47;0.47;;;15.30;99.90;15.20;101891.00;;;;5041384;28;20289;-73
2022/06/13 00:15:19;;;;;;;2.03;1.93;;;15.30;99.90;15.10;101894.00;;;;5041056;28;20667;-72
2022/06/13 00:18:20;;;;;;;0.53;0.53;;;15.30;99.90;15.00;101893.00;;;;5057733;28;20175;-72
2022/06/13 00:21:23;;;;;;;0.40;0.40;;;15.30;99.90;14.90;101896.00;;;;5075381;28;20173;-72
2022/06/13 00:24:10;;;;;;;2.43;2.33;;;15.20;99.90;15.10;101862.00;;;;5057450;28;20181;-72
2022/06/13 00:27:00;;;;;;;0.73;0.73;;;15.20;99.90;15.30;101900.00;;;;5040923;28;20181;-72
2022/06/13 00:29:49;;;;;;;0.73;0.60;;;15.30;99.90;15.10;101886.00;;;;5057505;28;20173;-72
2022/06/13 00:32:52;;;;;;;0.30;0.30;;;15.30;99.90;15.00;101906.00;;;;5057630;28;20224;-73
2022/06/13 00:35:55;;;;;;;0.83;0.83;;;15.20;99.90;14.80;101861.00;;;;5057319;28;20272;-73
2022/06/13 00:38:59;;;;;;;0.77;0.77;;;15.20;99.90;14.80;101908.00;;;;5057513;28;20188;-73
2022/06/13 00:41:49;;;;;;;0.30;0.30;;;15.10;99.90;14.90;101902.00;;;;5040564;28;20177;-73
2022/06/13 00:45:03;;;;;;;3.40;1.13;;;15.20;99.90;15.20;101906.00;;;;5057162;28;20183;-73
2022/06/13 00:48:07;;;;;;;1.27;1.27;;;15.30;99.90;14.80;101860.00;;;;5056941;28;20243;-73
2022/06/13 00:51:01;;;;;;;0.30;0.30;;;15.20;99.90;14.70;101908.00;;;;5056699;28;20173;-73
2022/06/13 00:54:08;;;;;;;0.40;0.40;;;15.10;99.90;14.80;101911.00;;;;5040073;28;20191;-73
2022/06/13 00:56:42;;;;;;;0.73;0.73;;;15.10;99.90;14.60;101913.00;;;;5056175;28;20205;-73
2022/06/13 00:59:33;;;;;;;1.90;1.13;;;15.00;99.90;15.00;101903.00;;;;5056842;28;20214;-72
2022/06/13 01:02:37;;;;;;;0.30;0.30;;;15.00;99.90;14.80;101907.00;;;;5056485;28;20200;-72
2022/06/13 01:05:43;;;;;;;0.40;0.40;;;15.10;99.90;15.30;101886.00;;;;5056582;28;20274;-73
2022/06/13 01:08:33;;;;;;;0.97;0.97;;;15.20;99.90;15.10;101887.00;;;;5044656;28;20182;-73
2022/06/13 01:11:26;;;;;;;0.40;0.40;;;15.30;99.90;14.70;101886.00;;;;5056286;28;20185;-72
2022/06/13 01:14:23;;;;;;;0.43;0.43;;;15.00;99.90;15.10;101843.00;;;;5056356;28;20246;-73
2022/06/13 01:17:57;;;;;;;0.50;0.50;;;15.20;99.90;15.00;101884.00;;;;5073194;28;20188;-73
2022/06/13 01:20:45;;;;;;;0.60;0.60;;;15.10;99.90;14.70;101890.00;;;;5030323;28;20203;-73
2022/06/13 01:23:48;;;;;;;0.63;0.63;;;15.00;99.90;14.50;101893.00;;;;5074046;28;20176;-73
2022/06/13 01:26:33;;;;;;;0.60;0.60;;;14.80;99.90;14.40;101888.00;;;;5073898;28;20636;-73
2022/06/13 01:29:37;;;;;;;1.27;1.17;;;14.70;99.90;14.50;101900.00;;;;5074153;28;20181;-73
2022/06/13 01:32:43;;;;;;;0.80;0.80;;;14.70;99.90;14.80;101907.00;;;;5055142;28;20235;-73
2022/06/13 01:35:26;;;;;;;0.30;0.30;;;14.80;99.90;14.80;101902.00;;;;5073972;28;20632;-73
2022/06/13 01:38:40;;;;;;;2.27;1.70;;;14.80;99.90;14.70;101897.00;;;;5072720;28;20205;-73
2022/06/13 01:41:36;;;;;;;1.93;1.27;;;14.80;99.90;14.40;101911.00;;;;5047828;28;20246;-73
2022/06/13 01:45:07;;;;;;;0.43;0.43;;;14.70;99.90;14.00;101905.00;;;;5072667;28;20192;-73
2022/06/13 01:47:59;;;;;;;0.40;0.40;;;14.60;99.90;14.40;101874.00;;;;4981372;28;20247;-73
2022/06/13 01:51:27;;;;;;;6.33;2.20;;;14.60;99.90;14.30;101911.00;;;;4989628;28;20225;-73
2022/06/13 01:54:28;;;;;;;14.93;6.57;;;14.60;99.90;14.30;101905.00;;;;5052356;28;20193;-72
2022/06/13 01:57:52;;;;;;;0.40;0.40;;;14.70;99.90;14.40;101885.00;;;;5062560;28;20195;-72
2022/06/13 02:01:09;;;;;;;0.30;0.30;;;14.60;99.90;14.40;101905.00;;;;5039017;28;20194;-72
2022/06/13 02:04:18;;;;;;;0.60;0.60;;;14.70;99.90;14.20;101850.00;;;;5073708;28;20200;-72
2022/06/13 02:07:13;;;;;;;0.57;0.57;;;14.50;99.90;14.20;101870.00;;;;5071877;28;20169;-72
2022/06/13 02:10:03;;;;;;;1.20;1.10;;;14.50;99.90;14.40;101865.00;;;;5050100;28;20196;-73
2022/06/13 02:12:55;;;;;;;1.53;1.43;;;14.50;99.90;14.10;101899.00;;;;5055278;28;20217;-74
2022/06/13 02:15:44;;;;;;;1.17;0.97;;;14.40;99.90;14.40;101906.00;;;;5072329;28;20284;-74
2022/06/13 02:18:45;;;;;;;1.40;1.30;;;14.50;99.90;14.20;101904.00;;;;5072344;28;20174;-73
2022/06/13 02:21:42;;;;;;;0.80;0.80;;;14.50;99.90;14.50;101896.00;;;;5054510;28;20194;-73
2022/06/13 02:24:33;;;;;;;2.83;1.57;;;14.50;99.90;14.40;101863.00;;;;5073124;28;20181;-72
2022/06/13 02:27:19;;;;;;;1.60;0.90;;;14.60;99.90;14.30;101902.00;;;;5072073;28;20192;-73
2022/06/13 02:30:09;;;;;;;0.87;0.87;;;14.50;99.90;14.40;101892.00;;;;5072084;28;20663;-73
2022/06/13 02:33:12;;;;;;;0.57;0.57;;;14.60;99.90;14.80;101897.00;;;;5071658;28;20664;-73
2022/06/13 02:36:39;;;;;;;2.07;1.83;;;14.70;99.90;14.70;101897.00;;;;5072136;28;20234;-73
2022/06/13 02:39:28;;;;;;;0.93;0.93;;;14.80;99.90;14.70;101905.00;;;;5043781;28;20193;-73
2022/06/13 02:42:30;;;;;;;0.30;0.30;;;14.80;99.90;15.00;101875.00;;;;5073239;28;20189;-73
2022/06/13 02:45:47;;;;;;;0.93;0.93;;;14.90;99.90;14.50;101909.00;;;;5071396;28;20181;-73
2022/06/13 02:48:46;;;;;;;1.70;1.50;;;14.70;99.90;14.40;101872.00;;;;5071938;28;20196;-72
2022/06/13 02:51:33;;;;;;;3.40;2.17;;;14.60;99.90;14.90;101906.00;;;;5072933;28;20230;-72
2022/06/13 02:54:31;;;;;;;1.60;1.50;;;14.80;99.90;14.80;101911.00;;;;5072815;28;20179;-73
2022/06/13 02:57:34;;;;;;;0.50;0.50;;;14.90;99.90;14.50;101905.00;;;;5060104;28;20307;-73
2022/06/13 03:00:27;;;;;;;8.33;5.13;;;14.80;99.90;15.00;101880.00;;;;5071650;28;20178;-73
2022/06/13 03:03:38;;;;;;;0.80;0.80;;;14.80;99.90;15.20;101904.00;;;;5064666;28;20252;-72
2022/06/13 03:06:39;;;;;;;0.40;0.40;;;15.00;99.90;14.70;101890.00;;;;4991428;28;20228;-72
2022/06/13 03:09:45;;;;;;;0.73;0.73;;;14.90;99.90;14.50;101897.00;;;;4991201;28;20187;-72
2022/06/13 03:12:39;;;;;;;0.30;0.30;;;14.70;99.90;14.90;101909.00;;;;4901997;29;20308;-72
2022/06/13 03:15:29;;;;;;;2.27;2.07;;;14.80;99.90;14.90;101915.00;;;;4901430;29;20195;-72
2022/06/13 03:18:38;;;;;;;1.93;1.80;;;14.80;99.90;15.10;101875.00;;;;4952942;28;20199;-72
2022/06/13 03:21:48;;;;;;;0.93;0.93;;;14.90;99.90;14.70;101924.00;;;;4983817;28;20215;-72
2022/06/13 03:25:00;;;;;;;4.03;2.50;;;14.90;99.90;14.30;101871.00;;;;4971510;28;20199;-72
2022/06/13 03:27:57;;;;;;;2.10;1.70;;;14.70;99.90;15.10;101923.00;;;;4962609;28;20706;-72
2022/06/13 03:30:30;;;;;;;2.73;2.53;;;14.90;99.90;15.00;101881.00;;;;5016201;28;20188;-73
2022/06/13 03:33:40;;;;;;;0.50;0.50;;;15.00;99.90;15.10;101864.00;;;;5055085;28;20217;-73
2022/06/13 03:36:48;;;;;;;1.13;1.13;;;15.00;99.90;15.50;101918.00;;;;5055473;28;20694;-73
2022/06/13 03:40:08;;;;;;;0.93;0.53;;;15.20;99.90;15.00;101913.00;;;;5054971;28;20183;-74
2022/06/13 03:43:13;;;;;;;0.60;0.60;;;15.10;99.90;14.60;101901.00;;;;5026167;28;20198;-75
2022/06/13 03:46:29;;;;;;;0.40;0.40;;;14.90;99.90;15.00;101919.00;;;;5054792;28;20178;-74
2022/06/13 03:49:38;;;;;;;0.30;0.30;;;14.80;99.90;14.90;101911.00;;;;5024793;28;20227;-74
2022/06/13 03:52:26;;;;;;;2.27;0.87;;;14.90;99.90;14.40;101915.00;;;;5037621;28;20217;-74
2022/06/13 03:55:20;;;;;;;0.30;0.30;;;14.70;99.90;14.60;101934.00;;;;5054526;28;20189;-73
2022/06/13 03:58:11;;;;;;;0.93;0.93;;;14.70;99.90;14.60;101930.00;;;;5054438;28;20173;-73
2022/06/13 04:01:03;;;;;;;1.20;1.20;;;14.70;99.90;14.90;101926.00;;;;5054721;28;20189;-73
2022/06/13 04:03:53;;;;;;;0.47;0.47;;;14.80;99.90;15.50;101927.00;;;;5055021;28;20647;-74
2022/06/13 04:06:37;;;;;;;0.97;0.97;;;15.10;99.90;15.60;101932.00;;;;5054610;28;20180;-75
2022/06/13 04:09:34;;;;;;;0.30;0.30;;;15.20;99.90;15.80;101931.00;;;;5054323;28;20217;-74
2022/06/13 04:12:53;;;;;;;0.30;0.30;;;15.50;99.90;16.30;101934.00;;;;5054365;28;20196;-74
2022/06/13 04:15:34;;;;;;;0.40;0.40;;;15.80;99.90;15.90;101935.00;;;;4955163;29;20189;-74
2022/06/13 04:18:26;;;;;;;0.30;0.30;;;15.70;99.90;15.90;101934.00;;;;4955355;28;20272;-74
2022/06/13 04:21:42;;;;;;;0.40;0.40;;;15.80;99.90;16.10;101940.00;;;;4954275;29;20201;-74
2022/06/13 04:24:26;;;;;;;0.37;0.37;;;15.90;99.90;16.50;101941.00;;;;4955284;29;20540;-74
2022/06/13 04:30:14;;;;;;;0.20;0.20;;;16.50;99.90;17.00;101950.00;;;;4954925;28;20190;-72
2022/06/13 04:33:33;;;;;;;0.20;0.20;;;16.60;99.90;18.10;101943.00;;;;4939861;29;20310;-72
2022/06/13 04:36:37;;;;;;;0.30;0.30;;;17.20;99.90;17.60;101940.00;;;;4933838;29;20211;-71
2022/06/13 04:39:34;;;;;;;0.20;0.20;;;17.50;99.90;18.20;101944.00;;;;4938788;29;20195;-71
2022/06/13 04:42:21;;;;;;;0.20;0.20;;;17.70;99.90;18.10;101942.00;;;;4938596;29;20219;-72
2022/06/13 04:45:35;;;;;;;0.20;0.20;;;17.70;99.90;18.70;101956.00;;;;4946112;28;20214;-72
2022/06/13 04:48:21;;;;;;;0.20;0.20;;;18.00;99.90;19.40;101957.00;;;;5036418;28;20237;-71
2022/06/13 04:51:18;;;;;;;0.20;0.20;;;18.50;99.90;20.40;101944.00;;;;5053587;28;20222;-72
2022/06/13 04:54:10;;;;;;;0.20;0.20;;;19.30;99.90;21.00;101958.00;;;;5054034;28;20618;-72
2022/06/13 04:57:01;;;;;;;0.20;0.20;;;20.00;99.90;21.40;102011.00;;;;5053435;28;20645;-71
2022/06/13 04:59:46;;;;;;;0.20;0.20;;;20.50;99.90;20.10;102006.00;;;;5053254;28;20196;-71
2022/06/13 05:02:39;;;;;;;0.35;0.35;;;20.20;99.90;21.20;101978.00;;;;5053169;28;20197;-71
2022/06/13 05:05:41;;;;;;;0.20;0.20;;;20.30;99.90;22.10;102037.00;;;;5053243;28;20186;-71
2022/06/13 05:08:40;;;;;;;0.20;0.20;;;20.90;99.90;23.20;102059.00;;;;5053331;28;20178;-72
2022/06/13 05:11:35;;;;;;;0.10;0.10;;;21.70;99.90;24.60;102105.00;;;;5052761;28;20182;-71
2022/06/13 05:14:35;;;;;;;0.10;0.10;;;22.90;99.90;25.00;102093.00;;;;5052787;28;20185;-71
2022/06/13 05:17:26;;;;;;;0.10;0.10;;;23.60;99.90;24.30;102133.00;;;;5053313;28;20642;-72
2022/06/13 05:20:19;;;;;;;0.10;0.10;;;23.30;99.90;23.90;102131.00;;;;5054242;28;20181;-72
2022/06/13 05:23:03;;;;;;;1.65;0.95;;;23.00;99.90;24.40;102145.00;;;;5054157;28;20182;-71
2022/06/13 05:25:48;;;;;;;0.20;0.20;;;23.30;99.90;23.70;102141.00;;;;5052770;28;20186;-71
2022/06/13 05:28:41;;;;;;;0.85;0.85;;;22.80;99.90;22.10;102106.00;;;;5052995;28;20188;-71
2022/06/13 05:31:42;;;;;;;0.30;0.30;;;21.80;99.90;20.90;102097.00;;;;5052683;28;20194;-71
2022/06/13 05:34:32;;;;;;;0.20;0.20;;;21.20;99.90;21.00;102089.00;;;;5054045;28;20265;-71
2022/06/13 05:37:19;;;;;;;1.60;1.60;;;20.50;99.90;21.10;102107.00;;;;5052441;28;20182;-71
2022/06/13 05:40:06;;;;;;;0.40;0.40;;;20.40;99.90;21.20;102105.00;;;;5052488;28;20186;-72
2022/06/13 05:42:55;;;;;;;0.20;0.20;;;20.30;99.90;20.90;102114.00;;;;5051855;28;20196;-71
2022/06/13 05:45:40;;;;;;;0.20;0.20;;;20.40;99.90;20.70;102109.00;;;;5052812;28;20522;-72
2022/06/13 05:48:42;;;;;;;0.30;0.30;;;20.20;99.90;20.70;102107.00;;;;5052572;28;20604;-72
2022/06/13 05:51:43;;;;;;;0.85;0.85;;;20.20;99.90;21.20;102148.00;;;;5052169;28;20270;-71
2022/06/13 05:54:54;;;;;;;0.17;0.17;;;20.60;99.90;21.70;102159.00;;;;5052485;28;20662;-71
2022/06/13 05:57:43;;;;;;;0.25;0.25;;;21.10;99.90;22.20;102167.00;;;;5052256;28;20263;-71
2022/06/13 06:00:52;;;;;;;0.50;0.50;;;21.30;99.90;21.60;102155.00;;;;5052429;28;20283;-72
2022/06/13 06:03:45;;;;;;;0.10;0.10;;;21.20;99.90;21.80;102169.00;;;;5052164;28;20190;-71
2022/06/13 06:06:41;;;;;;;0.10;0.10;;;21.20;99.90;22.50;102185.00;;;;5052328;28;20347;-70
2022/06/13 06:09:29;;;;;;;0.90;0.90;;;21.50;99.90;22.00;102184.00;;;;5051923;28;20645;-71
2022/06/13 06:12:13;;;;;;;0.10;0.10;;;21.80;99.90;22.10;102193.00;;;;5052424;28;20198;-71
2022/06/13 06:15:14;;;;;;;0.13;0.13;;;21.50;99.90;22.30;102206.00;;;;5052194;28;20659;-72
2022/06/13 06:18:24;;;;;;;0.22;0.22;;;21.60;99.90;22.70;102208.00;;;;5052230;28;20189;-71
2022/06/13 06:24:28;;;;;;;0.10;0.10;;;22.00;99.90;24.20;102243.00;;;;5057699;28;20204;-77
2022/06/13 06:26:55;;;;;;;0.85;0.45;;;23.30;99.90;24.30;102205.00;;;;5052687;28;20162;-78
2022/06/13 06:29:38;;;;;;;0.20;0.20;;;23.90;99.90;25.10;102244.00;;;;5065327;28;20182;-77
2022/06/13 06:32:24;;;;;;;0.30;0.30;;;24.20;99.90;24.60;102257.00;;;;5051663;28;20654;-76
2022/06/13 06:35:10;;;;;;;2.17;0.90;;;24.10;99.90;24.20;102261.00;;;;5056010;28;20186;-77
2022/06/13 06:38:23;;;;;;;0.20;0.20;;;24.20;99.90;22.80;102265.00;;;;5055346;28;20204;-77
2022/06/13 06:41:14;;;;;;;0.60;0.60;;;23.20;99.90;23.80;102263.00;;;;5027627;28;20735;-76
2022/06/13 06:44:03;;;;;;;0.80;0.80;;;23.30;99.90;24.30;102266.00;;;;5071667;28;20215;-78
2022/06/13 06:46:49;;;;;;;3.42;0.43;;;23.90;99.90;24.00;102272.00;;;;5040598;28;20181;-77
2022/06/13 06:49:57;;;;;;;0.10;0.10;;;23.60;99.90;25.40;102279.00;;;;5054829;28;20177;-86
2022/06/13 06:53:21;;;;;;;0.47;0.47;;;24.10;99.90;26.80;102244.00;;;;5054734;28;20248;-85
2022/06/13 07:03:11;;;;;;;0.60;0.60;;;23.90;99.90;22.80;102260.00;;;;5075781;28;20196;-85
2022/06/13 07:06:13;;;;;;;0.40;0.40;;;22.50;99.90;22.80;102271.00;;;;5075362;28;20213;-85
2022/06/13 07:09:16;;;;;;;0.25;0.25;;;22.80;99.90;23.90;102272.00;;;;5075251;28;20196;-85
2022/06/13 07:12:20;;;;;;;0.10;0.10;;;23.60;99.90;23.00;102269.00;;;;5075486;28;20342;-85
2022/06/13 07:15:48;;;;;;;0.20;0.20;;;23.10;99.90;25.10;102289.00;;;;5055392;28;20181;-84
2022/06/13 07:18:49;;;;;;;0.10;0.10;;;23.90;99.90;26.10;102288.00;;;;5056526;28;20622;-85
2022/06/13 07:21:51;;;;;;;0.15;0.15;;;24.90;99.90;28.50;102279.00;;;;5038582;28;20178;-85
2022/06/13 07:24:55;;;;;;;0.10;0.10;;;27.10;99.90;25.20;102283.00;;;;5051215;28;20227;-85
2022/06/13 07:28:16;;;;;;;0.22;0.22;;;26.00;99.90;23.10;102295.00;;;;5038682;28;20174;-84
2022/06/13 07:31:25;;;;;;;0.10;0.10;;;23.90;99.90;22.30;102286.00;;;;5056376;28;20213;-84
2022/06/13 07:34:31;;;;;;;0.10;0.10;;;22.50;99.90;21.80;102291.00;;;;5042618;28;20209;-79
2022/06/13 07:37:09;;;;;;;0.10;0.10;;;21.60;99.90;21.40;102297.00;;;;5038665;28;20221;-80
2022/06/13 07:39:59;;;;;;;0.10;0.10;;;21.10;99.90;23.20;102277.00;;;;5045137;28;20204;-84
2022/06/13 07:42:44;;;;;;;0.10;0.10;;;21.90;99.90;24.80;102313.00;;;;5058208;28;20561;-83
2022/06/13 07:45:27;;;;;;;0.40;0.32;;;23.50;99.90;26.80;102301.00;;;;5057943;28;20220;-78
2022/06/13 07:48:08;;;;;;;0.45;0.45;;;25.40;99.90;28.40;102295.00;;;;5060763;28;20550;-77
2022/06/13 07:50:53;;;;;;;0.10;0.10;;;27.20;99.90;28.50;102261.00;;;;5055829;28;20820;-78
2022/06/13 07:53:38;;;;;;;0.20;0.20;;;27.50;99.90;27.90;102275.00;;;;5038255;28;20240;-76
2022/06/13 07:56:28;;;;;;;0.10;0.10;;;27.30;99.30;26.70;102289.00;;;;5037873;28;20248;-77
2022/06/13 07:59:32;;;;;;;0.30;0.30;;;26.40;99.90;26.30;102308.00;;;;5038036;28;20174;-77
2022/06/13 08:02:26;;;;;;;0.10;0.10;;;25.60;99.90;26.00;102320.00;;;;5042011;28;20210;-71
2022/06/13 08:05:36;;;;;;;0.15;0.15;;;25.50;99.90;26.30;102283.00;;;;5037235;28;20181;-71
2022/06/13 08:08:22;;;;;;;0.20;0.20;;;25.40;99.90;27.70;102320.00;;;;5037981;28;20197;-72
2022/06/13 08:14:39;;;;;;;0.10;0.10;;;27.60;99.90;29.70;102268.00;;;;5063719;28;20185;-72
2022/06/13 08:17:31;;;;;;;0.10;0.10;;;28.90;95.90;30.70;102276.00;;;;5049813;28;20182;-72
2022/06/13 08:20:07;;;;;;;0.10;0.10;;;29.60;93.30;27.20;102311.00;;;;5034779;28;20190;-72
2022/06/13 08:22:59;;;;;;;3.35;0.55;;;28.20;93.50;26.80;102308.00;;;;5037575;28;20252;-72
2022/06/13 08:25:39;;;;;;;0.45;0.45;;;26.70;95.50;26.60;102298.00;;;;5054378;28;20659;-72
2022/06/13 08:28:21;;;;;;;0.47;0.32;;;26.00;96.70;24.60;102334.00;;;;5021489;28;20190;-72
2022/06/13 08:31:14;;;;;;;0.10;0.10;;;24.70;95.90;23.00;102354.00;;;;5020717;28;20193;-71
2022/06/13 08:33:54;;;;;;;0.10;0.10;;;23.10;98.40;23.40;102364.00;;;;5053503;28;20193;-72
2022/06/13 08:36:56;;;;;;;1.13;1.00;;;22.90;99.90;22.20;102366.00;;;;5053901;28;20174;-73
2022/06/13 08:39:31;;;;;;;0.10;0.10;;;22.30;99.90;22.70;102364.00;;;;4959789;28;20204;-73
2022/06/13 08:42:28;;;;;;;0.13;0.13;;;22.00;99.90;23.10;102353.00;;;;4975818;28;20546;-73
2022/06/13 08:45:25;;;;;;;0.70;0.43;;;22.10;99.90;23.80;102363.00;;;;4961670;28;20181;-73
2022/06/13 08:48:29;;;;;;;0.10;0.10;;;22.90;99.90;23.50;102339.00;;;;4976983;28;20189;-72
2022/06/13 08:51:33;;;;;;;0.10;0.10;;;23.00;99.90;23.60;102343.00;;;;5016238;28;20189;-73
2022/06/13 08:54:22;;;;;;;0.10;0.10;;;22.80;99.90;25.20;102324.00;;;;5054544;28;20182;-72
2022/06/13 08:57:11;;;;;;;0.30;0.30;;;24.00;99.90;27.30;102361.00;;;;5053281;28;20170;-73
2022/06/13 08:59:42;;;;;;;0.10;0.10;;;25.70;99.90;27.60;102357.00;;;;5036748;28;20186;-73
2022/06/13 09:02:33;;;;;;;0.20;0.20;;;26.60;99.50;28.50;102339.00;;;;5036208;28;20693;-71
2022/06/13 09:05:20;;;;;;;0.10;0.10;;;27.40;97.70;29.30;102323.00;;;;5037031;28;20248;-70
2022/06/13 09:08:11;;;;;;;0.20;0.20;;;28.20;95.80;29.60;102332.00;;;;5036440;28;20185;-70
2022/06/13 09:11:01;;;;;;;0.30;0.30;;;28.90;94.90;28.70;102340.00;;;;5033590;28;20198;-70
2022/06/13 09:14:12;;;;;;;0.52;0.52;;;28.60;94.60;25.20;102351.00;;;;5036794;28;20542;-70
2022/06/13 09:16:45;;;;;;;0.10;0.10;;;27.00;93.60;25.30;102365.00;;;;5052079;28;20206;-70
2022/06/13 09:19:32;;;;;;;0.10;0.10;;;25.30;95.80;25.90;102386.00;;;;5036522;28;20182;-70
2022/06/13 09:22:28;;;;;;;0.10;0.10;;;25.20;97.10;26.60;102373.00;;;;5052675;28;20193;-70
2022/06/13 09:25:38;;;;;;;0.10;0.10;;;25.90;97.10;27.30;102364.00;;;;5036380;28;20189;-70
2022/06/13 09:28:39;;;;;;;0.10;0.10;;;26.60;95.50;29.50;102346.00;;;;4976426;28;20181;-70
2022/06/13 09:32:17;;;;;;;0.70;0.45;;;28.00;94.60;27.40;102354.00;;;;4960249;28;20187;-70
2022/06/13 09:34:52;;;;;;;0.20;0.20;;;27.40;93.10;25.20;102368.00;;;;5024182;28;20668;-70
2022/06/13 09:37:48;;;;;;;0.10;0.10;;;25.70;93.90;25.50;102393.00;;;;5036210;28;20178;-70
2022/06/13 09:40:30;;;;;;;0.13;0.13;;;25.10;95.80;26.10;102345.00;;;;5033616;28;20217;-70
2022/06/13 09:43:37;;;;;;;0.10;0.10;;;25.70;95.80;26.50;102388.00;;;;5036032;28;20225;-70
2022/06/13 09:46:42;;;;;;;0.10;0.10;;;26.20;94.90;25.80;102366.00;;;;5006412;28;20213;-72
2022/06/13 09:49:28;;;;;;;0.10;0.10;;;25.50;95.50;25.20;102403.00;;;;5053533;28;20205;-72
2022/06/13 09:52:06;;;;;;;0.80;0.80;;;25.00;96.60;25.90;102419.00;;;;5053696;28;20678;-72
2022/06/13 09:55:21;;;;;;;0.45;0.45;;;25.40;97.70;25.40;102406.00;;;;5035901;28;20195;-72
2022/06/13 09:58:24;;;;;;;0.10;0.10;;;25.60;97.50;23.40;102427.00;;;;5052470;28;20213;-72
2022/06/13 10:01:19;;;;;;;1.98;0.55;;;23.90;98.80;23.30;102438.00;;;;5035663;28;20257;-72
2022/06/13 10:04:34;;;;;;;2.70;0.68;;;23.20;99.90;22.70;102431.00;;;;5035807;28;20529;-72
2022/06/13 10:07:29;;;;;;;0.20;0.20;;;23.10;99.50;23.50;102439.00;;;;5035344;28;20182;-72
2022/06/13 10:10:29;;;;;;;5.30;0.47;;;23.10;99.90;24.80;102423.00;;;;5034913;28;20348;-72
2022/06/13 10:13:23;;;;;;;0.10;0.10;;;23.60;99.90;26.70;102414.00;;;;5035360;28;20186;-72
2022/06/13 10:16:22;;;;;;;0.10;0.10;;;25.30;99.00;28.00;102407.00;;;;5035255;28;20178;-72
2022/06/13 10:19:30;;;;;;;0.10;0.10;;;27.00;94.60;26.60;102409.00;;;;5035503;28;20189;-72
2022/06/13 10:33:18;;;;;;;0.10;0.10;;;24.40;95.50;25.60;102430.00;;;;5113007;27;1334534;-72
2022/06/13 10:36:09;;;;;;;0.10;0.10;;;25.10;96.00;26.60;102409.00;;;;5131726;27;20258;-72
2022/06/13 10:39:06;;;;;;;2.75;0.30;;;26.00;94.20;28.20;102400.00;;;;5113656;28;20518;-72
2022/06/13 10:41:54;;;;;;;0.10;0.10;;;27.30;93.10;28.50;102393.00;;;;5101190;28;20197;-70
2022/06/13 10:44:28;;;;;;;0.10;0.10;;;28.20;92.20;27.40;102390.00;;;;5130260;28;20687;-70
2022/06/13 10:47:21;;;;;;;0.10;0.10;;;27.60;89.60;27.20;102400.00;;;;5113184;28;20179;-70
2022/06/13 10:50:00;;;;;;;0.10;0.10;;;26.70;90.10;26.50;102416.00;;;;5130565;28;20175;-69
2022/06/13 10:52:37;;;;;;;0.10;0.10;;;26.30;91.80;24.60;102423.00;;;;5130262;28;20201;-69
2022/06/13 10:55:18;;;;;;;0.90;0.75;;;25.30;92.60;25.80;102424.00;;;;5112937;28;20185;-70
2022/06/13 10:58:22;;;;;;;0.10;0.10;;;25.30;93.50;27.50;102424.00;;;;5112653;28;20187;-70
2022/06/13 11:01:24;;;;;;;0.10;0.10;;;26.60;94.50;26.60;102425.00;;;;5131352;27;20253;-70
2022/06/13 11:04:17;;;;;;;0.20;0.20;;;26.70;93.00;25.00;102438.00;;;;5113598;28;20312;-72
2022/06/13 11:06:46;;;;;;;0.10;0.10;;;25.50;93.20;25.00;102435.00;;;;5113036;28;20309;-72
2022/06/13 11:09:27;;;;;;;0.10;0.10;;;25.00;94.30;23.80;102414.00;;;;5129826;28;20207;-69
2022/06/13 11:12:19;;;;;;;0.20;0.20;;;24.00;95.40;23.50;102456.00;;;;5129581;28;20231;-70
2022/06/13 11:24:44;;;;;;;0.13;0.13;;;24.70;95.90;26.30;102454.00;;;;5130039;28;20696;-72
2022/06/13 11:28:14;;;;;;;0.10;0.10;;;25.50;94.70;26.80;102427.00;;;;5119750;28;20183;-72
2022/06/13 11:30:43;;;;;;;0.40;0.40;;;26.30;93.00;27.40;102427.00;;;;5091422;28;20203;-72
2022/06/13 11:33:40;;;;;;;0.20;0.20;;;27.20;92.00;28.00;102425.00;;;;5129484;28;20649;-72
2022/06/13 11:36:11;;;;;;;0.38;0.38;;;27.90;92.30;29.60;102402.00;;;;5129758;28;20637;-72
2022/06/13 11:39:05;;;;;;;0.10;0.10;;;29.20;90.50;26.90;102427.00;;;;5129134;28;20219;-70
2022/06/13 11:42:03;;;;;;;0.52;0.40;;;27.90;89.90;24.60;102450.00;;;;5112097;28;20185;-70
2022/06/13 11:44:56;;;;;;;0.10;0.10;;;25.20;91.40;26.20;102449.00;;;;5101752;28;20227;-72
2022/06/13 11:47:51;;;;;;;0.10;0.10;;;25.60;92.20;24.80;102455.00;;;;5099066;28;20180;-72
2022/06/13 11:50:36;;;;;;;0.20;0.20;;;25.30;91.70;24.70;102444.00;;;;5098309;28;20184;-72
2022/06/13 11:53:38;;;;;;;0.20;0.20;;;24.40;92.10;24.20;102475.00;;;;5115733;28;20194;-72
2022/06/13 11:56:24;;;;;;;0.10;0.10;;;23.80;93.30;23.90;102473.00;;;;5099531;28;20599;-72
2022/06/13 11:58:58;;;;;;;0.10;0.10;;;23.80;93.30;23.80;102471.00;;;;5098502;28;20190;-72
2022/06/13 12:01:30;;;;;;;5.25;0.45;;;23.30;94.30;24.00;102483.00;;;;5114825;28;20259;-72
2022/06/13 12:04:20;;;;;;;0.10;0.10;;;23.70;93.70;23.90;102473.00;;;;5098329;28;20192;-72
2022/06/13 12:07:06;;;;;;;0.30;0.30;;;23.60;93.40;23.70;102472.00;;;;5097995;28;20184;-72
2022/06/13 12:09:58;;;;;;;0.93;0.17;;;23.40;93.20;23.00;102475.00;;;;5098953;28;20207;-72
2022/06/13 12:12:48;;;;;;;0.10;0.10;;;23.10;93.40;21.70;102483.00;;;;5097673;28;20237;-72
2022/06/13 12:15:37;;;;;;;0.10;0.10;;;22.10;93.90;21.90;102453.00;;;;5097922;28;20183;-72
2022/06/13 12:18:26;;;;;;;0.20;0.20;;;21.60;94.80;22.40;102493.00;;;;5115097;28;20178;-72
2022/06/13 12:21:28;;;;;;;0.30;0.30;;;21.90;95.30;23.20;102484.00;;;;5114523;28;20181;-72
2022/06/13 12:24:18;;;;;;;0.10;0.10;;;22.60;94.60;24.40;102474.00;;;;5114917;28;20176;-72
2022/06/13 12:27:00;;;;;;;0.70;0.70;;;23.30;93.40;23.60;102466.00;;;;5114399;28;20653;-72
2022/06/13 12:30:28;;;;;;;0.10;0.10;;;23.20;91.80;24.20;102471.00;;;;5115688;28;20642;-73
2022/06/13 12:33:48;;;;;;;0.43;0.43;;;23.30;92.50;23.80;102467.00;;;;5032850;28;20257;-72
2022/06/13 12:36:33;;;;;;;0.10;0.10;;;23.20;92.80;23.00;102476.00;;;;5024089;28;20195;-72
2022/06/13 12:39:24;;;;;;;0.10;0.10;;;22.80;92.60;23.40;102479.00;;;;5016512;28;20178;-72
2022/06/13 12:42:26;;;;;;;0.20;0.20;;;22.60;93.10;23.10;102482.00;;;;5113584;28;20196;-72
2022/06/13 12:45:19;;;;;;;0.20;0.20;;;22.60;92.50;23.40;102472.00;;;;5097340;28;20199;-72
2022/06/13 12:48:17;;;;;;;0.10;0.10;;;22.60;93.20;22.80;102475.00;;;;5114000;28;20211;-72
2022/06/13 12:51:05;;;;;;;0.10;0.10;;;22.30;93.20;23.20;102480.00;;;;5108029;28;20665;-72
2022/06/13 12:53:59;;;;;;;0.10;0.10;;;22.40;94.40;22.60;102491.00;;;;5113807;28;20265;-73
2022/06/13 12:56:54;;;;;;;0.10;0.10;;;22.00;94.90;22.20;102497.00;;;;5113334;28;20274;-73
2022/06/13 12:59:47;;;;;;;0.17;0.17;;;21.80;94.80;21.60;102490.00;;;;5114190;28;20180;-72
2022/06/13 13:02:50;;;;;;;0.30;0.30;;;21.40;95.50;21.80;102492.00;;;;5113857;28;20659;-73
2022/06/13 13:06:21;;;;;;;0.45;0.30;;;21.30;95.60;21.60;102504.00;;;;5115267;28;20180;-72
2022/06/13 13:09:20;;;;;;;0.10;0.10;;;21.10;96.20;22.50;102480.00;;;;5100156;28;20183;-73
2022/06/13 13:12:17;;;;;;;0.10;0.10;;;21.40;94.90;22.40;102470.00;;;;5114735;28;20279;-72
2022/06/13 13:15:30;;;;;;;0.30;0.30;;;21.90;94.10;22.90;102479.00;;;;5113656;28;20184;-72
2022/06/13 13:18:20;;;;;;;0.10;0.10;;;22.10;95.00;22.80;102477.00;;;;5096751;28;20231;-72
2022/06/13 13:21:24;;;;;;;1.55;0.85;;;22.10;94.60;22.40;102473.00;;;;5113581;28;20181;-72
2022/06/13 13:24:25;;;;;;;0.20;0.20;;;22.00;94.60;22.60;102483.00;;;;5045506;28;20187;-72
2022/06/13 13:27:13;;;;;;;2.30;0.22;;;22.00;95.10;22.60;102495.00;;;;5113394;28;20187;-72
2022/06/13 13:30:04;;;;;;;0.13;0.13;;;22.00;95.10;22.50;102481.00;;;;5113405;28;20226;-72